STN weather

London Stansted Airport
London, England, United Kingdom

Public forecast

Using degrees Celsius for public forecast. Weather courtesy of forecast.io.

METAR (pilot weather report)

Retrieved 2018/12/13 18:20 UTC (0 seconds ago):

EGSS 131820Z AUTO 07007KT 9999 BKN028 02/M01 Q1019

TAF (pilot weather forecast)

Retrieved 2018/12/13 18:00 UTC (2 minutes ago):

TAF EGSS 131654Z 1318/1424 11009KT 9999 SCT030 PROB40 1403/1412 6000 PROB30 TEMPO 1412/1418 BKN014 PROB30 1418/1424 4000 BR